Time;durP1;ratioP1;P1;durP2;ratioP2;P2;SDS_P1;SDS_P2;PMS_P1;PMS_P2;Temp;Humidity;BMP_temperature;BMP_pressure;BME280_temperature;BME280_humidity;BME280_pressure;Samples;Min_cycle;Max_cycle;Signal;HPM_P1;HPM_P2
2021/04/09 00:02:47;;;;;;;38.78;16.90;;;;;;;0.08;66.70;100880.48;2171546;80;21113;-73
2021/04/09 00:05:48;;;;;;;32.10;14.70;;;;;;;0.10;66.72;100879.95;2176859;80;21097;-71
2021/04/09 00:08:51;;;;;;;32.88;13.25;;;;;;;0.07;66.73;100880.11;2177012;80;21130;-73
2021/04/09 00:11:54;;;;;;;23.15;11.08;;;;;;;0.06;66.79;100878.88;2170946;80;21129;-72
2021/04/09 00:14:55;;;;;;;25.57;10.75;;;;;;;-0.02;66.84;100887.96;2178541;80;21184;-74
2021/04/09 00:17:57;;;;;;;20.88;9.80;;;;;;;-0.13;67.06;100888.14;2175078;79;21125;-74
2021/04/09 00:20:58;;;;;;;22.37;9.88;;;;;;;-0.27;67.16;100885.78;2173757;80;21103;-72
2021/04/09 00:24:00;;;;;;;19.17;10.38;;;;;;;-0.37;67.27;100883.25;2175959;80;21089;-74
2021/04/09 00:27:02;;;;;;;25.00;11.65;;;;;;;-0.41;67.40;100890.02;2174052;80;21102;-71
2021/04/09 00:30:07;;;;;;;28.40;11.65;;;;;;;-0.47;67.62;100889.87;2178837;80;21747;-72
2021/04/09 00:33:08;;;;;;;28.42;12.23;;;;;;;-0.54;67.65;100889.78;2169412;80;21118;-71
2021/04/09 00:36:10;;;;;;;31.12;13.00;;;;;;;-0.58;67.74;100885.19;2152813;80;21699;-72
2021/04/09 00:39:11;;;;;;;26.23;11.90;;;;;;;-0.57;67.68;100882.95;2173870;80;21633;-72
2021/04/09 00:42:18;;;;;;;30.37;13.22;;;;;;;-0.57;67.73;100886.86;2182483;80;21174;-72
2021/04/09 00:45:20;;;;;;;30.27;13.68;;;;;;;-0.60;67.74;100881.80;2175903;80;21079;-72
2021/04/09 00:48:21;;;;;;;34.43;13.60;;;;;;;-0.62;67.90;100877.59;2180624;80;21105;-72
2021/04/09 00:51:23;;;;;;;34.33;15.00;;;;;;;-0.66;67.96;100883.88;2175270;80;21087;-73
2021/04/09 00:54:24;;;;;;;30.90;13.10;;;;;;;-0.69;67.91;100877.05;2161157;80;21551;-72
2021/04/09 00:57:26;;;;;;;30.15;13.68;;;;;;;-0.71;67.96;100884.09;2174902;80;21129;-72
2021/04/09 01:00:28;;;;;;;33.28;14.00;;;;;;;-0.73;67.90;100882.05;2174928;80;21165;-72
2021/04/09 01:03:30;;;;;;;31.05;13.70;;;;;;;-0.74;67.95;100885.56;2183441;80;21495;-73
2021/04/09 01:06:31;;;;;;;32.58;13.18;;;;;;;-0.74;68.05;100880.34;2176406;80;21153;-71
2021/04/09 01:09:35;;;;;;;28.95;12.58;;;;;;;-0.78;67.98;100885.34;2174373;80;21122;-72
2021/04/09 01:12:37;;;;;;;28.80;12.95;;;;;;;-0.78;67.95;100886.64;2176937;80;21092;-72
2021/04/09 01:15:39;;;;;;;28.62;12.60;;;;;;;-0.77;67.92;100883.94;2173130;80;21078;-73
2021/04/09 01:18:48;;;;;;;30.57;12.70;;;;;;;-0.72;67.89;100893.69;2181758;80;21747;-72
2021/04/09 01:22:05;;;;;;;27.80;12.90;;;;;;;-0.69;67.83;100887.02;2174435;80;21090;-72
2021/04/09 01:25:47;;;;;;;35.70;13.35;;;;;;;-0.66;67.76;100877.37;2174567;80;21154;-72
2021/04/09 01:29:23;;;;;;;30.30;12.63;;;;;;;-0.64;67.72;100874.23;2174476;80;21113;-71
2021/04/09 01:32:26;;;;;;;31.40;13.40;;;;;;;-0.66;67.68;100866.94;2174039;80;21130;-73
2021/04/09 01:35:29;;;;;;;41.48;13.98;;;;;;;-0.73;67.76;100868.55;2179614;80;21125;-71
2021/04/09 01:38:33;;;;;;;36.00;15.35;;;;;;;-0.77;67.83;100868.77;2181311;80;21128;-71
2021/04/09 01:41:38;;;;;;;31.55;13.72;;;;;;;-0.83;67.87;100868.61;2175158;80;21114;-71
2021/04/09 01:44:46;;;;;;;27.50;12.82;;;;;;;-0.89;67.91;100866.31;2180581;80;21101;-73
2021/04/09 01:47:50;;;;;;;33.70;13.50;;;;;;;-0.95;67.94;100865.32;2176931;80;21489;-71
2021/04/09 01:50:53;;;;;;;30.82;13.88;;;;;;;-1.00;68.13;100859.02;2176873;80;21214;-74
2021/04/09 01:53:55;;;;;;;32.73;14.23;;;;;;;-1.05;68.19;100858.86;2179604;80;21106;-72
2021/04/09 01:56:57;;;;;;;38.28;14.55;;;;;;;-1.10;68.29;100857.77;2155430;81;21201;-70
2021/04/09 02:00:00;;;;;;;28.05;12.80;;;;;;;-1.17;68.53;100854.63;2173333;80;21565;-70
2021/04/09 02:03:04;;;;;;;29.00;11.97;;;;;;;-1.21;68.80;100857.44;2174568;80;22681;-71
2021/04/09 02:06:07;;;;;;;28.52;13.75;;;;;;;-1.25;68.73;100848.10;2174931;80;21105;-70
2021/04/09 02:09:11;;;;;;;30.85;12.75;;;;;;;-1.28;68.86;100848.25;2162580;80;21632;-71
2021/04/09 02:12:13;;;;;;;28.73;12.65;;;;;;;-1.31;68.99;100837.52;2162768;80;21537;-70
2021/04/09 02:15:19;;;;;;;29.07;12.78;;;;;;;-1.33;69.08;100832.84;2179829;80;21196;-70
2021/04/09 02:18:20;;;;;;;24.92;12.47;;;;;;;-1.37;69.20;100834.75;2178557;80;21119;-74
2021/04/09 02:21:22;;;;;;;26.12;12.40;;;;;;;-1.37;69.13;100824.34;2180363;80;21620;-71
2021/04/09 02:24:23;;;;;;;28.77;12.23;;;;;;;-1.35;69.15;100830.78;2175179;80;21563;-72
2021/04/09 02:27:25;;;;;;;24.43;12.40;;;;;;;-1.33;69.22;100817.67;2179092;80;21132;-72
2021/04/09 02:30:26;;;;;;;23.85;10.72;;;;;;;-1.32;69.11;100816.31;2178243;80;21548;-74
2021/04/09 02:33:27;;;;;;;24.60;11.97;;;;;;;-1.30;69.29;100816.23;2175331;80;21192;-71
2021/04/09 02:36:30;;;;;;;24.67;11.22;;;;;;;-1.29;69.34;100817.94;2172401;80;21101;-74
2021/04/09 02:39:35;;;;;;;21.23;11.50;;;;;;;-1.26;69.21;100819.08;2086303;82;21173;-72
2021/04/09 02:42:38;;;;;;;23.65;11.03;;;;;;;-1.24;69.19;100813.31;2184444;80;21156;-70
2021/04/09 02:45:39;;;;;;;22.80;10.98;;;;;;;-1.18;69.37;100814.35;2173623;80;21164;-73
2021/04/09 02:48:46;;;;;;;28.00;11.78;;;;;;;-1.20;69.19;100799.25;2179322;80;21686;-71
2021/04/09 02:51:50;;;;;;;21.05;10.95;;;;;;;-1.20;69.23;100796.64;2176854;80;21102;-71
2021/04/09 02:54:54;;;;;;;22.02;11.30;;;;;;;-1.19;69.26;100793.95;2175305;80;21114;-71
2021/04/09 02:57:56;;;;;;;25.37;11.28;;;;;;;-1.22;69.40;100799.77;2179510;80;21633;-71
2021/04/09 03:00:58;;;;;;;18.87;10.65;;;;;;;-1.25;69.59;100804.67;2178571;80;21632;-71
2021/04/09 03:04:01;;;;;;;20.23;11.15;;;;;;;-1.27;69.64;100797.84;2176903;80;21564;-70
2021/04/09 03:07:03;;;;;;;21.55;10.48;;;;;;;-1.28;69.67;100793.56;2176671;80;21275;-71
2021/04/09 03:10:12;;;;;;;24.77;11.73;;;;;;;-1.29;69.65;100795.80;2160337;80;21153;-71
2021/04/09 03:13:14;;;;;;;24.92;11.65;;;;;;;-1.27;69.66;100788.73;2181889;80;21196;-71
2021/04/09 03:16:19;;;;;;;21.12;10.93;;;;;;;-1.28;69.68;100789.66;2177139;80;21173;-70
2021/04/09 03:19:20;;;;;;;26.68;12.68;;;;;;;-1.29;69.70;100787.98;2184432;80;21121;-72
2021/04/09 03:22:21;;;;;;;24.67;11.85;;;;;;;-1.30;69.88;100781.08;2177358;80;21248;-72
2021/04/09 03:25:23;;;;;;;24.63;11.03;;;;;;;-1.33;69.79;100783.83;2164683;80;21106;-75
2021/04/09 03:28:25;;;;;;;27.58;11.90;;;;;;;-1.37;69.92;100780.08;2177515;80;21556;-72
2021/04/09 03:31:26;;;;;;;27.37;10.75;;;;;;;-1.41;70.12;100774.65;2180550;80;21145;-72
2021/04/09 03:34:27;;;;;;;20.65;10.93;;;;;;;-1.45;70.14;100771.79;2178053;80;21129;-73
2021/04/09 03:37:28;;;;;;;23.52;11.00;;;;;;;-1.47;70.25;100773.62;2177396;80;21318;-72
2021/04/09 03:40:30;;;;;;;18.45;10.38;;;;;;;-1.48;70.22;100777.15;2179715;80;21115;-75
2021/04/09 03:43:31;;;;;;;25.55;11.08;;;;;;;-1.45;70.17;100770.48;2180248;80;21172;-73
2021/04/09 03:46:32;;;;;;;19.05;9.58;;;;;;;-1.41;70.15;100767.27;2177161;80;21113;-72
2021/04/09 03:49:34;;;;;;;19.35;11.03;;;;;;;-1.40;70.11;100767.67;2167993;80;21161;-70
2021/04/09 03:52:38;;;;;;;22.75;10.88;;;;;;;-1.39;70.16;100766.28;2182330;80;21117;-71
2021/04/09 03:55:39;;;;;;;19.15;10.65;;;;;;;-1.43;70.16;100762.63;2180382;80;21125;-71
2021/04/09 03:58:41;;;;;;;18.05;10.10;;;;;;;-1.45;70.21;100750.13;2153251;80;21180;-72
2021/04/09 04:01:44;;;;;;;18.98;9.80;;;;;;;-1.46;70.29;100753.20;2161371;80;21189;-73
2021/04/09 04:04:45;;;;;;;17.10;10.05;;;;;;;-1.43;70.24;100754.81;2175227;80;21522;-76
2021/04/09 04:07:46;;;;;;;17.05;9.63;;;;;;;-1.42;70.29;100754.72;2173947;80;21133;-73
2021/04/09 04:10:48;;;;;;;21.12;9.78;;;;;;;-1.41;70.28;100742.54;2175898;80;21121;-73
2021/04/09 04:13:49;;;;;;;18.57;9.18;;;;;;;-1.41;70.61;100745.14;2175740;80;21612;-72
2021/04/09 04:16:50;;;;;;;18.73;9.50;;;;;;;-1.43;70.87;100740.03;2181753;80;21115;-73
2021/04/09 04:19:52;;;;;;;20.35;9.55;;;;;;;-1.44;70.62;100736.19;2178488;80;21565;-73
2021/04/09 04:22:53;;;;;;;18.10;9.68;;;;;;;-1.43;70.58;100737.42;2178429;80;21107;-74
2021/04/09 04:25:54;;;;;;;20.68;9.95;;;;;;;-1.39;70.55;100727.70;2178516;80;21159;-72
2021/04/09 04:28:55;;;;;;;19.65;8.80;;;;;;;-1.33;70.68;100716.97;2173152;80;21193;-72
2021/04/09 04:31:57;;;;;;;18.85;8.95;;;;;;;-1.20;70.69;100727.63;2173096;80;21533;-72
2021/04/09 04:34:59;;;;;;;19.55;9.58;;;;;;;-1.03;70.59;100723.72;2165332;80;21081;-74
2021/04/09 04:38:00;;;;;;;20.55;8.98;;;;;;;-0.84;70.36;100724.09;2163002;80;21089;-70
2021/04/09 04:41:02;;;;;;;19.65;9.03;;;;;;;-0.69;70.17;100725.42;2162126;80;21519;-73
2021/04/09 04:44:03;;;;;;;15.03;7.85;;;;;;;-0.63;69.95;100718.21;2166291;80;21085;-70
2021/04/09 04:47:05;;;;;;;15.80;8.93;;;;;;;-0.57;69.82;100718.72;2168051;80;21241;-70
2021/04/09 04:50:07;;;;;;;20.62;8.35;;;;;;;-0.49;69.77;100715.72;2163078;80;21605;-70
2021/04/09 04:53:09;;;;;;;17.60;9.10;;;;;;;-0.24;69.42;100716.08;2164970;80;21107;-70
2021/04/09 04:56:10;;;;;;;17.95;8.75;;;;;;;0.08;69.25;100717.84;2164677;81;21093;-70
2021/04/09 04:59:11;;;;;;;14.35;7.83;;;;;;;0.44;69.05;100715.78;2170062;80;21212;-70
2021/04/09 05:02:14;;;;;;;16.65;8.38;;;;;;;0.91;68.62;100706.14;2163548;80;21167;-70
2021/04/09 05:05:16;;;;;;;17.52;7.95;;;;;;;1.40;68.04;100712.33;2164845;80;21648;-71
2021/04/09 05:08:17;;;;;;;17.05;8.30;;;;;;;1.81;67.21;100709.42;2168163;80;21145;-77
2021/04/09 05:11:18;;;;;;;16.02;8.43;;;;;;;2.20;66.99;100717.36;2165897;80;21122;-81
2021/04/09 05:14:19;;;;;;;18.55;8.38;;;;;;;2.59;66.49;100715.72;2169351;80;21183;-81
2021/04/09 05:17:21;;;;;;;16.25;7.28;;;;;;;2.87;65.47;100719.97;2165212;80;21078;-82
2021/04/09 05:20:22;;;;;;;15.93;7.72;;;;;;;3.13;63.75;100710.34;2157035;80;21216;-77
2021/04/09 05:23:25;;;;;;;12.68;8.10;;;;;;;3.35;63.46;100708.84;2165539;80;21573;-82
2021/04/09 05:26:27;;;;;;;18.57;7.85;;;;;;;3.55;63.62;100710.11;2166375;80;21157;-83
2021/04/09 05:29:29;;;;;;;16.97;8.18;;;;;;;3.67;61.60;100704.47;2166755;80;21091;-81
2021/04/09 05:32:31;;;;;;;14.98;7.28;;;;;;;3.75;61.69;100696.90;2157428;80;21155;-83
2021/04/09 05:35:33;;;;;;;16.35;7.70;;;;;;;3.93;60.57;100704.77;2163080;80;21200;-83
2021/04/09 05:38:34;;;;;;;12.43;7.22;;;;;;;4.11;60.60;100705.25;2163706;80;21169;-78
2021/04/09 05:41:36;;;;;;;13.75;7.22;;;;;;;4.35;59.81;100701.30;2164833;80;22421;-83
2021/04/09 05:44:37;;;;;;;13.68;7.03;;;;;;;4.71;60.20;100695.11;2170802;80;21068;-76
2021/04/09 05:47:38;;;;;;;11.03;6.70;;;;;;;5.07;61.12;100695.08;2167161;80;21161;-83
2021/04/09 05:50:40;;;;;;;11.68;6.75;;;;;;;5.42;59.33;100693.66;2163374;80;21116;-88
2021/04/09 05:53:42;;;;;;;10.55;6.05;;;;;;;5.65;58.19;100690.54;2165323;80;22251;-76
2021/04/09 05:56:44;;;;;;;13.93;6.42;;;;;;;5.91;57.56;100684.51;2164761;80;21185;-74
2021/04/09 05:59:47;;;;;;;17.37;8.30;;;;;;;6.19;55.92;100681.83;2163393;80;21079;-83
2021/04/09 06:02:48;;;;;;;13.72;7.67;;;;;;;6.34;55.60;100681.58;2170716;80;21105;-74
2021/04/09 06:05:50;;;;;;;13.83;6.78;;;;;;;6.51;56.56;100679.70;2164856;80;21136;-78
2021/04/09 06:08:51;;;;;;;13.38;6.55;;;;;;;7.05;57.07;100676.52;2158726;80;21094;-74
2021/04/09 06:11:53;;;;;;;12.55;6.72;;;;;;;7.54;54.71;100676.25;2164455;80;21645;-77
2021/04/09 06:14:55;;;;;;;15.48;6.85;;;;;;;7.96;54.70;100671.64;2140680;81;21140;-83
2021/04/09 06:17:57;;;;;;;11.33;6.20;;;;;;;8.11;52.77;100669.92;2163681;80;21169;-75
2021/04/09 06:20:58;;;;;;;10.65;6.60;;;;;;;8.00;51.41;100665.13;2161208;80;21109;-75
2021/04/09 06:24:00;;;;;;;15.53;6.80;;;;;;;8.01;53.15;100662.82;2163141;80;21164;-80
2021/04/09 06:27:03;;;;;;;12.90;6.08;;;;;;;7.99;51.61;100658.15;2169068;80;21077;-81
2021/04/09 06:30:07;;;;;;;11.22;5.95;;;;;;;8.12;50.44;100661.87;2164544;80;21142;-79
2021/04/09 06:33:09;;;;;;;13.13;6.20;;;;;;;8.32;50.90;100657.42;2169460;80;21205;-79
2021/04/09 06:36:11;;;;;;;12.95;5.22;;;;;;;8.68;50.97;100649.78;2170112;81;21130;-79
2021/04/09 06:39:12;;;;;;;8.93;5.60;;;;;;;8.83;50.60;100652.33;2167542;81;21221;-76
2021/04/09 06:42:18;;;;;;;14.95;6.62;;;;;;;9.22;50.12;100650.07;2172072;80;21159;-76
2021/04/09 06:45:20;;;;;;;8.90;4.92;;;;;;;9.38;47.74;100641.84;2168752;80;21647;-84
2021/04/09 06:48:21;;;;;;;11.68;4.85;;;;;;;9.42;45.90;100632.62;2170280;80;21088;-76
2021/04/09 06:51:24;;;;;;;7.83;4.50;;;;;;;9.54;48.00;100636.39;2168779;80;21132;-75
2021/04/09 06:54:26;;;;;;;10.55;4.03;;;;;;;9.58;45.99;100630.66;2169604;80;21105;-80
2021/04/09 06:57:29;;;;;;;7.67;4.60;;;;;;;9.71;46.39;100621.52;2173530;81;21153;-76
2021/04/09 07:00:36;;;;;;;6.58;3.92;;;;;;;9.87;47.00;100625.67;2165708;80;21145;-76
2021/04/09 07:03:38;;;;;;;6.83;4.22;;;;;;;10.02;44.47;100614.05;2169876;80;21168;-76
2021/04/09 07:06:41;;;;;;;10.77;4.83;;;;;;;9.98;45.26;100613.53;2146147;81;21673;-78
2021/04/09 07:09:45;;;;;;;7.15;4.17;;;;;;;10.14;44.53;100613.36;2175402;80;21238;-79
2021/04/09 07:12:52;;;;;;;7.55;4.10;;;;;;;10.26;44.06;100606.83;2123614;82;21174;-77
2021/04/09 07:15:54;;;;;;;6.47;4.55;;;;;;;10.41;43.70;100599.18;2088393;83;21142;-75
2021/04/09 07:19:04;;;;;;;8.40;4.67;;;;;;;10.42;42.87;100597.72;2098791;84;21133;-77
2021/04/09 07:22:06;;;;;;;9.20;4.80;;;;;;;10.41;43.01;100599.18;2101609;83;21193;-77
2021/04/09 07:25:15;;;;;;;9.33;5.22;;;;;;;10.37;41.99;100582.75;2106066;82;21193;-77
2021/04/09 07:28:20;;;;;;;9.53;5.00;;;;;;;10.55;43.25;100586.19;2099472;82;21198;-76
2021/04/09 07:31:28;;;;;;;8.73;4.78;;;;;;;10.85;41.79;100593.86;2099095;83;22501;-77
2021/04/09 07:34:59;;;;;;;10.25;4.65;;;;;;;11.07;42.54;100599.13;2107065;83;21582;-76
2021/04/09 07:38:01;;;;;;;11.68;5.83;;;;;;;11.01;41.83;100582.00;2099163;83;21123;-77
2021/04/09 07:41:11;;;;;;;9.20;4.92;;;;;;;10.67;40.72;100590.77;2090420;83;21163;-76
2021/04/09 07:44:16;;;;;;;7.85;4.97;;;;;;;10.81;41.32;100591.98;2091588;83;21201;-76
2021/04/09 07:47:18;;;;;;;11.75;4.92;;;;;;;10.59;38.89;100586.73;2103673;83;21221;-76
2021/04/09 07:50:19;;;;;;;8.68;5.22;;;;;;;10.37;39.95;100585.90;2181169;80;21158;-76
2021/04/09 07:53:35;;;;;;;10.90;5.80;;;;;;;10.51;40.99;100579.53;2175614;80;21062;-77
2021/04/09 07:56:48;;;;;;;10.53;5.22;;;;;;;10.90;40.97;100580.45;2176526;80;21109;-79
2021/04/09 07:59:49;;;;;;;7.12;5.00;;;;;;;11.26;39.85;100574.12;2180584;80;21140;-77
2021/04/09 08:02:56;;;;;;;10.15;5.50;;;;;;;11.61;40.28;100573.09;2179671;80;21767;-75
2021/04/09 08:06:25;;;;;;;9.88;5.35;;;;;;;11.79;39.95;100560.48;2181866;80;21176;-78
2021/04/09 08:09:27;;;;;;;7.25;4.90;;;;;;;11.61;38.44;100558.48;2165821;80;21098;-75
2021/04/09 08:12:35;;;;;;;8.95;4.95;;;;;;;11.15;37.82;100530.95;2177777;80;21105;-76
2021/04/09 08:15:37;;;;;;;10.72;5.92;;;;;;;11.20;38.14;100545.87;2185490;80;21134;-75
2021/04/09 08:18:39;;;;;;;9.23;4.50;;;;;;;11.20;38.14;100545.87;2177090;80;21119;-77
2021/04/09 08:21:44;;;;;;;8.65;4.87;;;;;;;11.27;36.11;100529.33;2180483;80;21219;-76
2021/04/09 08:24:47;;;;;;;7.55;5.40;;;;;;;11.20;37.55;100551.69;2168185;80;21141;-75
2021/04/09 08:27:49;;;;;;;9.38;5.37;;;;;;;11.33;36.83;100514.89;2181181;80;21648;-76
2021/04/09 08:30:51;;;;;;;9.00;5.08;;;;;;;11.33;36.83;100514.89;2181297;80;21098;-77
2021/04/09 08:33:53;;;;;;;13.95;6.97;;;;;;;11.32;36.10;100529.65;2177594;80;21226;-76
2021/04/09 08:36:54;;;;;;;10.45;5.67;;;;;;;11.19;36.34;100538.09;2184374;80;21521;-79
2021/04/09 08:39:56;;;;;;;8.78;6.10;;;;;;;11.19;36.97;100541.57;2178029;80;21131;-76
2021/04/09 08:42:57;;;;;;;9.85;5.53;;;;;;;11.43;37.25;100546.62;2181081;80;21509;-78
2021/04/09 08:45:59;;;;;;;9.10;5.12;;;;;;;11.62;36.31;100525.07;2180709;80;21193;-77
2021/04/09 08:49:02;;;;;;;8.78;5.47;;;;;;;11.75;35.99;100538.41;2177315;80;21204;-76
2021/04/09 08:52:05;;;;;;;7.47;5.42;;;;;;;11.78;36.04;100529.59;2178523;80;21537;-76
2021/04/09 08:55:10;;;;;;;9.05;5.42;;;;;;;11.93;36.20;100524.48;2177372;80;21166;-76
2021/04/09 08:58:18;;;;;;;11.00;5.67;;;;;;;12.03;35.75;100521.67;2181485;80;21140;-77
2021/04/09 09:01:19;;;;;;;11.38;5.80;;;;;;;12.01;35.04;100510.36;2179378;80;21081;-75
2021/04/09 09:04:29;;;;;;;9.33;5.33;;;;;;;12.04;35.87;100510.84;2182552;80;21180;-76
2021/04/09 09:07:53;;;;;;;13.10;5.70;;;;;;;12.38;35.47;100502.34;2177099;80;21125;-76
2021/04/09 09:10:55;;;;;;;10.48;5.90;;;;;;;12.54;35.60;100505.80;2177503;80;21142;-76
2021/04/09 09:13:57;;;;;;;7.55;5.25;;;;;;;12.71;35.93;100496.45;2182410;80;21133;-76
2021/04/09 09:17:00;;;;;;;7.35;5.70;;;;;;;12.84;35.42;100496.74;2174951;80;21550;-76
2021/04/09 09:20:12;;;;;;;8.03;6.08;;;;;;;12.72;35.20;100478.95;2151649;80;21127;-77
2021/04/09 09:23:19;;;;;;;9.58;5.83;;;;;;;12.58;35.03;100485.49;2176653;80;21174;-74
2021/04/09 09:26:42;;;;;;;11.25;5.60;;;;;;;12.64;35.71;100484.80;2173546;80;21101;-72
2021/04/09 09:29:47;;;;;;;8.68;6.12;;;;;;;12.93;33.63;100469.57;2176432;80;21188;-71
2021/04/09 09:32:48;;;;;;;11.12;5.62;;;;;;;12.72;32.88;100462.16;2157435;81;21167;-73
2021/04/09 09:36:10;;;;;;;10.13;5.80;;;;;;;12.55;33.72;100463.53;2166100;80;21191;-72
2021/04/09 09:39:16;;;;;;;8.13;5.90;;;;;;;12.45;33.58;100469.57;2173042;80;21082;-75
2021/04/09 09:42:29;;;;;;;16.57;6.25;;;;;;;12.41;34.28;100451.44;2146014;80;21531;-76
2021/04/09 09:45:37;;;;;;;12.20;5.95;;;;;;;12.26;34.03;100445.48;2151303;80;22706;-78
2021/04/09 09:48:38;;;;;;;10.05;6.08;;;;;;;12.29;35.26;100440.33;2166115;80;21074;-76
2021/04/09 09:51:40;;;;;;;8.35;5.80;;;;;;;12.34;33.85;100436.67;2162335;80;21113;-74
2021/04/09 09:54:41;;;;;;;9.33;5.80;;;;;;;12.49;34.57;100440.27;2163765;80;21676;-75
2021/04/09 09:57:50;;;;;;;7.60;5.35;;;;;;;12.53;34.39;100433.62;2167237;80;21165;-74
2021/04/09 10:00:59;;;;;;;10.30;5.90;;;;;;;12.63;32.16;100437.91;2162954;80;21157;-70
2021/04/09 10:04:00;;;;;;;8.20;5.42;;;;;;;12.77;33.98;100432.67;2166503;80;21556;-72
2021/04/09 10:07:06;;;;;;;14.47;6.10;;;;;;;12.84;33.82;100423.51;2164479;80;22347;-74
2021/04/09 10:10:09;;;;;;;8.60;5.72;;;;;;;12.84;33.55;100418.19;2148262;81;21157;-73
2021/04/09 10:13:27;;;;;;;12.00;6.08;;;;;;;12.73;33.36;100419.91;2161773;80;21157;-74
2021/04/09 10:16:28;;;;;;;9.33;6.45;;;;;;;12.72;34.15;100400.41;2164230;80;21121;-74
2021/04/09 10:19:30;;;;;;;11.90;6.53;;;;;;;12.69;33.49;100401.27;2159328;81;21133;-74
2021/04/09 10:22:32;;;;;;;14.23;7.00;;;;;;;12.62;33.50;100405.64;2165051;81;21567;-73
2021/04/09 10:25:35;;;;;;;10.25;5.67;;;;;;;12.50;33.80;100397.17;2165216;80;21695;-72
2021/04/09 10:28:39;;;;;;;12.53;6.35;;;;;;;12.72;34.28;100399.58;2165068;80;21541;-77
2021/04/09 10:31:40;;;;;;;8.53;6.20;;;;;;;12.97;33.47;100390.97;2166176;80;21601;-76
2021/04/09 10:34:42;;;;;;;13.10;6.90;;;;;;;13.18;33.82;100403.67;2161942;80;21153;-74
2021/04/09 10:37:43;;;;;;;12.03;6.60;;;;;;;13.22;33.34;100391.64;2161026;80;21171;-75
2021/04/09 10:40:57;;;;;;;7.58;5.35;;;;;;;13.22;32.83;100383.14;2163797;81;21561;-75
2021/04/09 10:44:08;;;;;;;11.55;6.55;;;;;;;13.05;33.06;100379.44;2158461;80;21122;-74
2021/04/09 10:47:10;;;;;;;9.20;5.70;;;;;;;12.97;32.84;100373.66;2170042;80;21146;-74
2021/04/09 10:50:13;;;;;;;13.20;6.33;;;;;;;13.24;33.58;100374.47;2161985;80;21123;-72
2021/04/09 10:53:15;;;;;;;13.93;6.92;;;;;;;13.27;32.72;100367.99;2164406;80;21664;-73
2021/04/09 10:56:16;;;;;;;9.75;6.85;;;;;;;13.26;32.11;100372.97;2165279;80;21491;-78
2021/04/09 10:59:19;;;;;;;10.72;6.15;;;;;;;13.11;32.56;100358.75;2159782;80;21137;-73
2021/04/09 11:02:25;;;;;;;9.78;6.58;;;;;;;13.10;32.96;100354.44;2166150;80;21180;-74
2021/04/09 11:05:29;;;;;;;11.00;6.22;;;;;;;13.27;32.57;100356.51;2152931;80;21094;-73
2021/04/09 11:08:34;;;;;;;10.93;6.78;;;;;;;13.14;33.02;100351.73;2162654;80;21538;-74
2021/04/09 11:11:42;;;;;;;9.50;6.30;;;;;;;13.17;33.15;100341.53;2160305;80;21135;-73
2021/04/09 11:14:41;;;;;;;10.63;6.42;;;;;;;13.21;32.60;100335.37;2163180;80;21160;-74
2021/04/09 11:17:55;;;;;;;13.10;6.70;;;;;;;13.19;32.66;100327.55;2169110;80;21137;-74
2021/04/09 11:20:57;;;;;;;9.03;6.45;;;;;;;13.19;33.31;100340.04;2159679;80;21089;-74
2021/04/09 11:23:58;;;;;;;10.20;6.92;;;;;;;13.44;32.89;100340.70;2157617;80;21597;-74
2021/04/09 11:27:04;;;;;;;12.10;6.85;;;;;;;13.50;32.80;100336.49;2162105;80;21067;-71
2021/04/09 11:30:22;;;;;;;10.13;5.85;;;;;;;13.55;32.45;100327.45;2163101;80;21215;-73
2021/04/09 11:33:34;;;;;;;13.65;6.03;;;;;;;13.36;32.77;100324.27;2172930;80;21196;-73
2021/04/09 11:36:49;;;;;;;12.37;7.15;;;;;;;13.40;32.95;100320.25;2174556;80;21516;-71
2021/04/09 11:39:56;;;;;;;10.08;6.28;;;;;;;13.26;32.62;100305.03;2179060;80;21184;-70
2021/04/09 11:42:57;;;;;;;11.50;6.45;;;;;;;13.38;33.21;100311.60;2174184;80;21079;-77
2021/04/09 11:45:58;;;;;;;11.33;6.20;;;;;;;13.61;33.10;100304.06;2175759;80;21691;-74
2021/04/09 11:49:02;;;;;;;9.75;6.33;;;;;;;13.62;31.88;100295.04;2179396;80;21122;-71
2021/04/09 11:52:06;;;;;;;11.43;5.45;;;;;;;13.64;32.84;100295.70;2172460;80;21150;-73
2021/04/09 11:55:16;;;;;;;10.63;6.62;;;;;;;13.83;32.79;100283.67;2179439;80;21645;-74
2021/04/09 11:58:26;;;;;;;11.30;5.87;;;;;;;13.90;33.20;100289.91;2170871;80;21153;-72
2021/04/09 12:01:28;;;;;;;11.20;5.62;;;;;;;13.99;32.09;100279.97;2178204;80;21701;-72
2021/04/09 12:04:37;;;;;;;11.83;5.78;;;;;;;13.92;32.28;100284.41;2178207;80;21062;-72
2021/04/09 12:07:38;;;;;;;13.18;6.90;;;;;;;13.91;32.12;100274.25;2181181;80;21113;-72
2021/04/09 12:10:40;;;;;;;9.68;5.55;;;;;;;13.86;32.40;100268.12;2180715;80;21204;-73
2021/04/09 12:13:46;;;;;;;12.07;6.40;;;;;;;13.84;32.12;100268.80;2176684;80;21141;-72
2021/04/09 12:16:48;;;;;;;10.32;5.75;;;;;;;13.94;32.67;100259.69;2182962;80;21099;-71
2021/04/09 12:19:53;;;;;;;10.23;6.37;;;;;;;14.14;32.72;100254.12;2177989;80;21062;-73
2021/04/09 12:22:56;;;;;;;11.35;7.05;;;;;;;14.23;32.50;100251.66;2174334;80;21160;-75
2021/04/09 12:25:59;;;;;;;9.83;6.40;;;;;;;14.22;32.58;100237.15;2175738;80;21168;-75
2021/04/09 12:29:01;;;;;;;9.88;5.60;;;;;;;14.29;32.67;100243.41;2178221;80;21522;-74
2021/04/09 12:32:04;;;;;;;9.65;5.67;;;;;;;14.39;32.26;100235.08;2178547;80;21120;-73
2021/04/09 12:35:08;;;;;;;10.43;5.35;;;;;;;14.51;32.33;100232.25;2177638;80;21502;-76
2021/04/09 12:38:10;;;;;;;8.83;5.40;;;;;;;14.58;30.82;100221.14;2169312;80;21191;-74
2021/04/09 12:41:11;;;;;;;6.15;4.67;;;;;;;14.41;31.02;100225.88;2181571;80;21185;-76
2021/04/09 12:44:15;;;;;;;10.50;5.67;;;;;;;14.46;30.32;100216.80;2183838;80;21174;-76
2021/04/09 12:47:17;;;;;;;10.28;6.12;;;;;;;14.40;30.94;100206.05;2178829;80;21565;-74
2021/04/09 12:50:20;;;;;;;9.15;5.35;;;;;;;14.21;30.88;100204.81;2172772;80;21142;-74
2021/04/09 12:53:22;;;;;;;9.48;5.45;;;;;;;14.15;30.47;100204.23;2178763;80;21149;-74
2021/04/09 12:56:23;;;;;;;8.85;5.78;;;;;;;13.90;30.38;100208.05;2179434;80;21125;-75
2021/04/09 12:59:25;;;;;;;8.15;5.05;;;;;;;13.80;31.07;100204.86;2180177;80;21545;-77
2021/04/09 13:02:27;;;;;;;10.15;5.72;;;;;;;13.79;30.62;100203.18;2159905;80;21149;-71
2021/04/09 13:05:29;;;;;;;11.43;5.53;;;;;;;13.79;30.84;100201.84;2180706;80;21149;-72
2021/04/09 13:08:30;;;;;;;13.72;6.35;;;;;;;13.61;31.32;100204.91;2176211;80;21149;-70
2021/04/09 13:11:32;;;;;;;10.35;5.85;;;;;;;13.56;31.06;100191.30;2158769;80;21166;-70
2021/04/09 13:14:34;;;;;;;11.03;6.12;;;;;;;13.54;31.17;100195.16;2177776;80;21077;-72
2021/04/09 13:17:35;;;;;;;11.95;5.90;;;;;;;13.48;30.98;100188.72;2178702;80;21106;-70
2021/04/09 13:20:37;;;;;;;12.28;6.50;;;;;;;13.48;31.27;100183.90;2106805;83;21559;-70
2021/04/09 13:23:38;;;;;;;7.55;5.40;;;;;;;13.51;31.39;100179.02;2178010;80;21070;-75
2021/04/09 13:26:40;;;;;;;9.08;5.60;;;;;;;13.63;31.50;100169.56;2175130;80;22341;-76
2021/04/09 13:29:45;;;;;;;11.80;5.80;;;;;;;13.77;32.12;100167.89;2183564;80;21102;-74
2021/04/09 13:32:47;;;;;;;7.50;5.30;;;;;;;13.83;31.32;100162.32;2178808;80;21122;-74
2021/04/09 13:35:48;;;;;;;10.40;5.65;;;;;;;13.85;31.44;100165.13;2147306;80;21139;-77
2021/04/09 13:38:49;;;;;;;10.80;5.92;;;;;;;13.81;31.42;100165.16;2123496;81;21144;-71
2021/04/09 13:41:52;;;;;;;8.85;4.95;;;;;;;13.72;31.51;100158.80;2144451;81;21098;-73
2021/04/09 13:44:54;;;;;;;7.35;5.70;;;;;;;13.53;31.48;100146.86;2118370;81;21604;-73
2021/04/09 13:47:55;;;;;;;8.60;5.33;;;;;;;13.42;31.67;100155.63;2142317;81;21111;-75
2021/04/09 13:50:57;;;;;;;12.80;5.25;;;;;;;13.41;31.78;100148.66;2144246;81;21531;-72
2021/04/09 13:53:59;;;;;;;9.68;5.87;;;;;;;13.29;31.27;100146.63;2141356;81;21526;-72
2021/04/09 13:57:01;;;;;;;6.90;5.60;;;;;;;13.25;32.21;100147.47;2147298;81;21208;-76
2021/04/09 14:00:05;;;;;;;8.88;5.78;;;;;;;13.32;32.67;100144.92;2144648;81;21188;-74
2021/04/09 14:03:09;;;;;;;11.33;5.80;;;;;;;13.37;32.31;100151.35;2109397;82;21595;-75
2021/04/09 14:06:10;;;;;;;10.08;5.75;;;;;;;13.38;32.66;100142.37;2136440;80;21191;-72
2021/04/09 14:09:12;;;;;;;10.10;5.45;;;;;;;13.40;32.28;100143.02;2125601;81;21172;-75